createdAt,value
2018-04-29T00:02:10.686Z,98010.30
2018-04-29T00:04:38.142Z,98023.68
2018-04-29T00:07:05.622Z,98027.77
2018-04-29T00:09:33.093Z,98030.91
2018-04-29T00:12:00.574Z,98013.31
2018-04-29T00:14:28.054Z,97998.97
2018-04-29T00:16:55.534Z,97984.80
2018-04-29T00:19:22.998Z,97947.19
2018-04-29T00:21:50.492Z,97905.39
2018-04-29T00:24:17.958Z,97904.89
2018-04-29T00:26:45.454Z,97887.00
2018-04-29T00:31:35.993Z,97852.30
2018-04-29T00:34:03.451Z,97843.44
2018-04-29T00:36:30.942Z,97839.38
2018-04-29T00:38:58.402Z,97830.50
2018-04-29T00:41:25.886Z,97818.03
2018-04-29T00:43:53.355Z,97828.87
2018-04-29T00:46:20.838Z,97833.98
2018-04-29T00:48:48.380Z,97843.08
2018-04-29T00:51:15.797Z,97860.11
2018-04-29T00:53:43.334Z,97853.36
2018-04-29T00:56:10.837Z,97847.72
2018-04-29T00:58:38.304Z,97849.79
2018-04-29T01:01:05.800Z,97849.33
2018-04-29T01:03:33.270Z,97854.92
2018-04-29T01:06:00.764Z,97858.14
2018-04-29T01:08:28.226Z,97857.61
2018-04-29T01:10:55.702Z,97874.69
2018-04-29T01:13:23.183Z,97869.98
2018-04-29T01:15:50.670Z,97869.23
2018-04-29T01:18:18.130Z,97870.87
2018-04-29T01:20:45.619Z,97868.95
2018-04-29T01:23:13.136Z,97862.22
2018-04-29T01:25:40.567Z,97859.95
2018-04-29T01:28:08.053Z,97861.81
2018-04-29T01:30:35.522Z,97871.66
2018-04-29T01:33:03.027Z,97871.50
2018-04-29T01:35:30.486Z,97865.33
2018-04-29T01:37:57.979Z,97863.78
2018-04-29T01:40:25.437Z,97864.57
2018-04-29T01:42:52.917Z,97861.98
2018-04-29T01:45:20.390Z,97864.48
2018-04-29T01:47:47.874Z,97860.22
2018-04-29T01:50:15.338Z,97857.76
2018-04-29T01:52:42.825Z,97852.72
2018-04-29T01:55:10.394Z,97850.79
2018-04-29T01:57:37.886Z,97843.81
2018-04-29T02:00:05.349Z,97840.60
2018-04-29T02:02:32.829Z,97842.56
2018-04-29T02:05:00.295Z,97835.77
2018-04-29T02:07:27.773Z,97835.17
2018-04-29T02:09:55.240Z,97831.77
2018-04-29T02:12:22.725Z,97825.66
2018-04-29T02:14:50.191Z,97812.85
2018-04-29T02:17:17.674Z,97813.22
2018-04-29T02:19:45.141Z,97807.38
2018-04-29T02:22:12.629Z,97804.88
2018-04-29T02:24:40.097Z,97808.17
2018-04-29T02:27:07.603Z,97813.51
2018-04-29T02:29:35.109Z,97819.77
2018-04-29T02:32:02.595Z,97809.54
2018-04-29T02:34:30.054Z,97805.03
2018-04-29T02:36:57.554Z,97804.87
2018-04-29T02:39:25.038Z,97806.08
2018-04-29T02:41:52.526Z,97810.80
2018-04-29T02:44:20.010Z,97814.64
2018-04-29T02:46:47.484Z,97811.76
2018-04-29T02:49:14.971Z,97809.14
2018-04-29T02:51:42.451Z,97806.33
2018-04-29T02:54:09.977Z,97800.23
2018-04-29T02:56:37.448Z,97800.16
2018-04-29T02:59:04.933Z,97798.73
2018-04-29T03:01:32.399Z,97795.44
2018-04-29T03:03:59.888Z,97806.96
2018-04-29T03:06:27.392Z,97808.33
2018-04-29T03:08:54.896Z,97810.84
2018-04-29T03:11:22.367Z,97810.16
2018-04-29T03:13:49.858Z,97807.12
2018-04-29T03:16:17.335Z,97799.27
2018-04-29T03:18:45.750Z,97806.78
2018-04-29T03:21:13.222Z,97816.97
2018-04-29T03:23:40.718Z,97808.20
2018-04-29T03:26:08.206Z,97809.74
2018-04-29T03:28:35.817Z,97804.32
2018-04-29T03:31:03.289Z,97803.91
2018-04-29T03:33:30.784Z,97799.19
2018-04-29T03:35:58.241Z,97800.44
2018-04-29T03:38:25.726Z,97789.13
2018-04-29T03:40:53.225Z,97790.87
2018-04-29T03:43:20.706Z,97789.36
2018-04-29T03:45:48.192Z,97788.19
2018-04-29T03:48:15.688Z,97790.70
2018-04-29T03:50:43.158Z,97796.25
2018-04-29T03:53:11.113Z,97792.94
2018-04-29T03:55:38.581Z,97804.63
2018-04-29T03:58:17.934Z,97795.39
2018-04-29T04:00:57.228Z,97792.39
2018-04-29T04:03:36.362Z,97793.03
2018-04-29T04:06:03.841Z,97779.76
2018-04-29T04:08:31.325Z,97774.34
2018-04-29T04:10:58.793Z,97772.38
2018-04-29T04:13:26.279Z,97770.34
2018-04-29T04:15:53.750Z,97773.92
2018-04-29T04:18:21.246Z,97773.22
2018-04-29T04:20:48.722Z,97763.44
2018-04-29T04:23:16.215Z,97755.72
2018-04-29T04:25:43.673Z,97754.01
2018-04-29T04:28:11.137Z,97749.33
2018-04-29T04:30:38.626Z,97754.67
2018-04-29T04:33:06.115Z,97752.41
2018-04-29T04:35:33.608Z,97766.28
2018-04-29T04:38:01.074Z,97765.36
2018-04-29T04:40:28.582Z,97759.31
2018-04-29T04:42:56.046Z,97748.74
2018-04-29T04:45:23.534Z,97740.73
2018-04-29T04:47:51.001Z,97748.24
2018-04-29T04:50:18.490Z,97751.70
2018-04-29T04:52:45.978Z,97745.66
2018-04-29T04:55:13.485Z,97752.05
2018-04-29T04:57:40.959Z,97752.22
2018-04-29T05:00:08.450Z,97752.30
2018-04-29T05:02:35.914Z,97756.06
2018-04-29T05:05:03.410Z,97764.94
2018-04-29T05:07:30.870Z,97771.99
2018-04-29T05:09:58.358Z,97763.01
2018-04-29T05:12:25.842Z,97766.30
2018-04-29T05:14:53.336Z,97770.44
2018-04-29T05:17:20.807Z,97773.89
2018-04-29T05:19:48.299Z,97777.52
2018-04-29T05:22:15.863Z,97777.89
2018-04-29T05:24:43.280Z,97780.56
2018-04-29T05:27:10.781Z,97776.80
2018-04-29T05:29:38.266Z,97774.41
2018-04-29T05:32:05.729Z,97774.45
2018-04-29T05:34:33.217Z,97771.12
2018-04-29T05:37:00.682Z,97771.39
2018-04-29T05:39:28.174Z,97765.73
2018-04-29T05:41:55.654Z,97756.05
2018-04-29T05:44:23.154Z,97755.50
2018-04-29T05:46:50.635Z,97756.51
2018-04-29T05:49:18.138Z,97749.98
2018-04-29T05:51:45.633Z,97753.30
2018-04-29T05:54:13.097Z,97754.23
2018-04-29T05:56:40.611Z,97759.84
2018-04-29T05:59:08.078Z,97757.38
2018-04-29T06:01:35.564Z,97756.63
2018-04-29T06:04:03.035Z,97747.17
2018-04-29T06:06:30.626Z,97746.44
2018-04-29T06:08:58.022Z,97742.51
2018-04-29T06:11:25.506Z,97739.17
2018-04-29T06:13:52.978Z,97736.22
2018-04-29T06:16:20.474Z,97731.90
2018-04-29T06:18:47.951Z,97728.06
2018-04-29T06:21:15.439Z,97718.48
2018-04-29T06:23:42.918Z,97710.84
2018-04-29T06:26:10.469Z,97708.53
2018-04-29T06:28:37.951Z,97710.65
2018-04-29T06:31:05.447Z,97700.02
2018-04-29T06:33:32.914Z,97705.97
2018-04-29T06:36:00.400Z,97703.30
2018-04-29T06:38:27.868Z,97698.28
2018-04-29T06:40:55.379Z,97694.89
2018-04-29T06:43:22.926Z,97690.83
2018-04-29T06:45:52.717Z,97689.46
2018-04-29T06:48:20.178Z,97690.20
2018-04-29T06:50:47.694Z,97689.48
2018-04-29T06:53:15.181Z,97684.54
2018-04-29T06:55:42.699Z,97681.27
2018-04-29T06:58:10.183Z,97678.59
2018-04-29T07:00:37.737Z,97676.48
2018-04-29T07:03:05.266Z,97683.77
2018-04-29T07:05:34.766Z,97691.16
2018-04-29T07:08:02.267Z,97692.59
2018-04-29T07:10:29.768Z,97689.16
2018-04-29T07:12:57.239Z,97681.33
2018-04-29T07:15:24.731Z,97682.35
2018-04-29T07:17:52.212Z,97679.84
2018-04-29T07:20:19.683Z,97674.05
2018-04-29T07:22:47.196Z,97678.17
2018-04-29T07:25:14.658Z,97673.38
2018-04-29T07:27:42.162Z,97681.52
2018-04-29T07:30:09.628Z,97676.38
2018-04-29T07:32:37.118Z,97671.67
2018-04-29T07:35:04.619Z,97675.81
2018-04-29T07:37:32.102Z,97669.25
2018-04-29T07:39:59.713Z,97660.89
2018-04-29T07:42:27.247Z,97662.39
2018-04-29T07:44:54.717Z,97663.73
2018-04-29T07:47:22.206Z,97659.30
2018-04-29T07:49:49.679Z,97663.55
2018-04-29T07:52:17.231Z,97656.81
2018-04-29T07:54:44.691Z,97649.77
2018-04-29T07:57:13.281Z,97645.69
2018-04-29T07:59:40.751Z,97648.20
2018-04-29T08:02:08.294Z,97644.45
2018-04-29T08:04:35.754Z,97646.45
2018-04-29T08:07:03.250Z,97644.43
2018-04-29T08:09:31.708Z,97638.37
2018-04-29T08:11:59.196Z,97636.98
2018-04-29T08:14:26.726Z,97633.16
2018-04-29T08:16:55.258Z,97640.03
2018-04-29T08:19:22.830Z,97642.20
2018-04-29T08:21:50.662Z,97640.02
2018-04-29T08:24:22.078Z,97629.27
2018-04-29T08:26:49.954Z,97624.74
2018-04-29T08:29:17.462Z,97620.73
2018-04-29T08:31:44.975Z,97625.86
2018-04-29T08:34:12.455Z,97624.53
2018-04-29T08:36:39.954Z,97626.20
2018-04-29T08:39:09.755Z,97621.97
2018-04-29T08:41:37.257Z,97618.09
2018-04-29T08:44:04.752Z,97614.72
2018-04-29T08:46:32.233Z,97610.29
2018-04-29T08:48:59.706Z,97618.03
2018-04-29T08:51:27.193Z,97609.12
2018-04-29T08:53:54.986Z,97607.16
2018-04-29T08:56:22.501Z,97602.69
2018-04-29T08:58:49.988Z,97595.46
2018-04-29T09:01:17.733Z,97600.14
2018-04-29T09:03:45.557Z,97603.52
2018-04-29T09:06:12.947Z,97599.23
2018-04-29T09:08:41.626Z,97596.66
2018-04-29T09:11:09.082Z,97605.54
2018-04-29T09:13:36.578Z,97602.80
2018-04-29T09:16:04.158Z,97594.78
2018-04-29T09:18:31.680Z,97588.97
2018-04-29T09:20:59.145Z,97587.25
2018-04-29T09:23:26.646Z,97585.78
2018-04-29T09:25:54.113Z,97579.64
2018-04-29T09:28:22.089Z,97580.28
2018-04-29T09:30:49.986Z,97568.18
2018-04-29T09:33:17.498Z,97560.71
2018-04-29T09:35:45.271Z,97560.27
2018-04-29T09:38:12.781Z,97559.28
2018-04-29T09:40:40.285Z,97560.24
2018-04-29T09:43:07.805Z,97566.21
2018-04-29T09:45:36.598Z,97556.91
2018-04-29T09:48:04.110Z,97555.72
2018-04-29T09:50:31.579Z,97555.08
2018-04-29T09:52:59.071Z,97547.45
2018-04-29T09:55:26.597Z,97542.83
2018-04-29T09:57:54.115Z,97541.73
2018-04-29T10:00:26.631Z,97543.14
2018-04-29T10:02:54.147Z,97540.88
2018-04-29T10:05:21.738Z,97535.39
2018-04-29T10:07:49.266Z,97521.76
2018-04-29T10:10:16.730Z,97519.07
2018-04-29T10:12:44.237Z,97509.48
2018-04-29T10:15:11.696Z,97503.05
2018-04-29T10:17:39.181Z,97497.58
2018-04-29T10:20:06.646Z,97495.48
2018-04-29T10:22:34.125Z,97492.66
2018-04-29T10:25:05.769Z,97499.59
2018-04-29T10:27:38.972Z,97497.36
2018-04-29T10:30:17.390Z,97490.91
2018-04-29T10:32:45.064Z,97482.08
2018-04-29T10:35:12.531Z,97486.86
2018-04-29T10:37:40.017Z,97475.55
2018-04-29T10:40:07.505Z,97471.16
2018-04-29T10:42:34.990Z,97467.08
2018-04-29T10:45:02.494Z,97464.75
2018-04-29T10:47:30.014Z,97452.41
2018-04-29T10:49:57.478Z,97444.28
2018-04-29T10:52:25.032Z,97444.47
2018-04-29T10:54:52.526Z,97441.31
2018-04-29T10:57:19.997Z,97434.68
2018-04-29T10:59:47.579Z,97422.98
2018-04-29T11:02:15.045Z,97426.70
2018-04-29T11:04:42.554Z,97420.30
2018-04-29T11:07:10.014Z,97420.64
2018-04-29T11:09:37.518Z,97419.27
2018-04-29T11:12:05.026Z,97409.66
2018-04-29T11:14:32.511Z,97406.11
2018-04-29T11:17:00.103Z,97410.37
2018-04-29T11:19:28.643Z,97406.55
2018-04-29T11:21:56.115Z,97398.58
2018-04-29T11:24:23.602Z,97404.70
2018-04-29T11:26:51.070Z,97402.09
2018-04-29T11:29:18.551Z,97398.38
2018-04-29T11:31:46.026Z,97395.06
2018-04-29T11:34:13.522Z,97390.28
2018-04-29T11:36:40.992Z,97380.08
2018-04-29T11:39:08.495Z,97373.72
2018-04-29T11:41:36.052Z,97373.06
2018-04-29T11:44:03.534Z,97357.94
2018-04-29T11:46:31.008Z,97353.30
2018-04-29T11:48:58.526Z,97356.42
2018-04-29T11:51:26.291Z,97347.60
2018-04-29T11:53:54.078Z,97350.81
2018-04-29T11:56:26.252Z,97347.63
2018-04-29T11:58:54.048Z,97350.15
2018-04-29T12:01:21.525Z,97345.09
2018-04-29T12:03:49.015Z,97337.70
2018-04-29T12:06:16.539Z,97341.90
2018-04-29T12:08:44.026Z,97326.30
2018-04-29T12:11:11.498Z,97327.48
2018-04-29T12:13:39.010Z,97309.06
2018-04-29T12:16:06.543Z,97311.35
2018-04-29T12:18:34.042Z,97305.39
2018-04-29T12:21:01.675Z,97300.77
2018-04-29T12:23:29.198Z,97290.35
2018-04-29T12:25:56.773Z,97293.67
2018-04-29T12:28:24.294Z,97296.44
2018-04-29T12:30:51.800Z,97297.09
2018-04-29T12:33:19.261Z,97277.86
2018-04-29T12:35:47.120Z,97279.09
2018-04-29T12:38:14.590Z,97268.67
2018-04-29T12:40:42.072Z,97273.88
2018-04-29T12:43:09.530Z,97269.33
2018-04-29T12:45:37.059Z,97263.55
2018-04-29T12:48:04.523Z,97244.78
2018-04-29T12:50:32.006Z,97243.39
2018-04-29T12:53:01.226Z,97234.19
2018-04-29T12:55:28.799Z,97228.66
2018-04-29T12:57:56.333Z,97219.97
2018-04-29T13:00:23.908Z,97216.42
2018-04-29T13:02:51.312Z,97209.77
2018-04-29T13:05:18.799Z,97212.91
2018-04-29T13:07:46.275Z,97215.05
2018-04-29T13:10:13.773Z,97201.47
2018-04-29T13:12:41.238Z,97194.72
2018-04-29T13:15:08.737Z,97185.34
2018-04-29T13:17:36.199Z,97176.88
2018-04-29T13:20:03.681Z,97168.07
2018-04-29T13:22:31.142Z,97167.47
2018-04-29T13:24:58.622Z,97168.80
2018-04-29T13:27:26.098Z,97155.51
2018-04-29T13:29:53.625Z,97147.66
2018-04-29T13:32:21.086Z,97144.02
2018-04-29T13:34:48.570Z,97136.22
2018-04-29T13:37:16.036Z,97127.72
2018-04-29T13:39:43.530Z,97121.08
2018-04-29T13:42:11.052Z,97121.97
2018-04-29T13:44:38.602Z,97114.06
2018-04-29T13:47:06.080Z,97112.18
2018-04-29T13:49:33.547Z,97101.43
2018-04-29T13:52:01.034Z,97095.41
2018-04-29T13:54:28.502Z,97072.71
2018-04-29T13:56:56.092Z,97073.91
2018-04-29T13:59:23.578Z,97071.67
2018-04-29T14:01:51.122Z,97058.34
2018-04-29T14:04:18.558Z,97048.31
2018-04-29T14:06:46.071Z,97042.17
2018-04-29T14:09:13.525Z,97033.72
2018-04-29T14:11:41.034Z,97032.62
2018-04-29T14:14:08.502Z,97029.27
2018-04-29T14:16:35.986Z,97020.95
2018-04-29T14:19:03.521Z,97027.58
2018-04-29T14:21:31.007Z,97016.99
2018-04-29T14:23:58.463Z,97022.03
2018-04-29T14:26:25.949Z,97018.47
2018-04-29T14:28:53.411Z,97018.94
2018-04-29T14:31:20.907Z,97008.38
2018-04-29T14:33:48.402Z,97009.12
2018-04-29T14:36:15.891Z,96995.83
2018-04-29T14:38:43.428Z,96985.57
2018-04-29T14:41:10.890Z,96984.72
2018-04-29T14:43:38.364Z,96979.83
2018-04-29T14:46:05.860Z,96978.52
2018-04-29T14:48:33.347Z,96979.82
2018-04-29T14:51:00.842Z,96972.36
2018-04-29T14:53:28.307Z,96974.02
2018-04-29T14:55:55.865Z,96975.70
2018-04-29T14:58:23.347Z,96962.98
2018-04-29T15:00:50.839Z,96964.67
2018-04-29T15:03:18.318Z,96963.36
2018-04-29T15:05:45.816Z,96970.66
2018-04-29T15:08:13.322Z,96958.42
2018-04-29T15:10:40.879Z,96971.52
2018-04-29T15:13:08.361Z,96963.50
2018-04-29T15:15:35.848Z,96956.36
2018-04-29T15:18:03.380Z,96952.78
2018-04-29T15:20:30.866Z,96954.72
2018-04-29T15:22:58.353Z,96946.75
2018-04-29T15:25:25.845Z,96939.64
2018-04-29T15:27:53.499Z,96938.59
2018-04-29T15:30:20.910Z,96941.59
2018-04-29T15:32:48.394Z,96929.09
2018-04-29T15:35:15.858Z,96927.05
2018-04-29T15:37:43.362Z,96922.63
2018-04-29T15:40:10.829Z,96928.04
2018-04-29T15:42:38.323Z,96917.64
2018-04-29T15:45:05.807Z,96910.28
2018-04-29T15:47:33.298Z,96905.84
2018-04-29T15:50:00.787Z,96900.67
2018-04-29T15:52:28.294Z,96902.73
2018-04-29T15:54:55.794Z,96903.22
2018-04-29T15:57:23.298Z,96894.23
2018-04-29T15:59:50.770Z,96882.56
2018-04-29T16:02:18.270Z,96887.35
2018-04-29T16:04:45.739Z,96880.15
2018-04-29T16:07:13.268Z,96872.73
2018-04-29T16:09:40.828Z,96865.02
2018-04-29T16:12:08.366Z,96869.64
2018-04-29T16:14:35.837Z,96867.42
2018-04-29T16:17:03.337Z,96868.63
2018-04-29T16:19:30.818Z,96862.31
2018-04-29T16:21:58.306Z,96867.11
2018-04-29T16:24:25.782Z,96861.04
2018-04-29T16:26:53.286Z,96846.14
2018-04-29T16:29:20.754Z,96842.15
2018-04-29T16:31:48.247Z,96837.37
2018-04-29T16:34:15.730Z,96832.20
2018-04-29T16:36:43.241Z,96835.38
2018-04-29T16:39:10.751Z,96832.70
2018-04-29T16:41:38.307Z,96830.05
2018-04-29T16:44:05.786Z,96830.19
2018-04-29T16:46:33.290Z,96825.66
2018-04-29T16:49:00.767Z,96828.91
2018-04-29T16:51:28.261Z,96824.69
2018-04-29T16:53:55.785Z,96832.86
2018-04-29T16:56:23.254Z,96826.84
2018-04-29T16:58:50.759Z,96827.59
2018-04-29T17:01:18.256Z,96818.86
2018-04-29T17:03:45.750Z,96818.42
2018-04-29T17:06:13.222Z,96814.91
2018-04-29T17:08:40.729Z,96812.46
2018-04-29T17:11:08.194Z,96810.38
2018-04-29T17:13:35.687Z,96804.64
2018-04-29T17:16:03.175Z,96797.78
2018-04-29T17:18:30.668Z,96793.03
2018-04-29T17:20:58.153Z,96787.64
2018-04-29T17:23:25.654Z,96773.97
2018-04-29T17:25:53.138Z,96757.34
2018-04-29T17:28:20.630Z,96755.31
2018-04-29T17:30:49.034Z,96769.19
2018-04-29T17:33:16.527Z,96780.27
2018-04-29T17:35:44.014Z,96783.77
2018-04-29T17:38:11.577Z,96778.33
2018-04-29T17:40:39.018Z,96778.65
2018-04-29T17:43:06.531Z,96781.50
2018-04-29T17:45:34.002Z,96789.75
2018-04-29T17:48:02.493Z,96775.83
2018-04-29T17:50:29.974Z,96768.70
2018-04-29T17:52:57.489Z,96762.53
2018-04-29T17:55:24.981Z,96756.09
2018-04-29T17:57:52.483Z,96755.63
2018-04-29T18:00:19.958Z,96754.41
2018-04-29T18:02:47.464Z,96764.68
2018-04-29T18:05:14.933Z,96762.63
2018-04-29T18:07:42.494Z,96764.89
2018-04-29T18:10:09.970Z,96756.52
2018-04-29T18:12:37.470Z,96760.77
2018-04-29T18:15:04.955Z,96752.81
2018-04-29T18:17:32.441Z,96754.70
2018-04-29T18:19:59.918Z,96741.13
2018-04-29T18:22:27.394Z,96736.11
2018-04-29T18:24:54.894Z,96732.97
2018-04-29T18:27:22.375Z,96731.84
2018-04-29T18:29:49.866Z,96722.63
2018-04-29T18:32:17.332Z,96720.86
2018-04-29T18:34:44.854Z,96714.16
2018-04-29T18:37:12.396Z,96711.13
2018-04-29T18:39:39.929Z,96722.30
2018-04-29T18:42:07.404Z,96723.39
2018-04-29T18:44:34.916Z,96718.99
2018-04-29T18:47:02.396Z,96712.00
2018-04-29T18:49:29.886Z,96715.47
2018-04-29T18:51:57.447Z,96714.04
2018-04-29T18:54:24.978Z,96728.47
2018-04-29T18:56:52.446Z,96731.66
2018-04-29T18:59:19.943Z,96736.26
2018-04-29T19:01:47.441Z,96745.61
2018-04-29T19:04:14.953Z,96749.75
2018-04-29T19:06:42.427Z,96757.61
2018-04-29T19:09:09.938Z,96767.33
2018-04-29T19:11:37.428Z,96774.70
2018-04-29T19:14:05.000Z,96779.60
2018-04-29T19:16:32.409Z,96782.78
2018-04-29T19:18:59.904Z,96788.64
2018-04-29T19:21:27.637Z,96797.97
2018-04-29T19:23:55.288Z,96797.08
2018-04-29T19:26:22.742Z,96797.13
2018-04-29T19:28:50.227Z,96797.42
2018-04-29T19:31:17.714Z,96797.48
2018-04-29T19:33:45.213Z,96805.61
2018-04-29T19:36:12.698Z,96812.72
2018-04-29T19:38:40.243Z,96810.38
2018-04-29T19:41:07.730Z,96816.13
2018-04-29T19:43:35.225Z,96818.55
2018-04-29T19:46:02.769Z,96825.81
2018-04-29T19:48:30.268Z,96829.66
2018-04-29T19:50:57.766Z,96832.55
2018-04-29T19:53:25.282Z,96835.25
2018-04-29T19:55:52.762Z,96837.18
2018-04-29T19:58:20.234Z,96846.48
2018-04-29T20:00:47.727Z,96849.89
2018-04-29T20:03:15.209Z,96858.06
2018-04-29T20:05:42.725Z,96868.33
2018-04-29T20:08:10.230Z,96872.14
2018-04-29T20:10:37.719Z,96896.14
2018-04-29T20:13:05.198Z,96909.73
2018-04-29T20:15:32.695Z,96914.00
2018-04-29T20:18:00.162Z,96920.39
2018-04-29T20:20:27.680Z,96910.57
2018-04-29T20:22:55.167Z,96919.76
2018-04-29T20:25:22.653Z,96928.05
2018-04-29T20:27:50.154Z,96940.41
2018-04-29T20:30:17.670Z,96966.28
2018-04-29T20:32:48.890Z,96984.41
2018-04-29T20:35:16.380Z,96988.58
2018-04-29T20:37:43.839Z,96997.31
2018-04-29T20:40:11.358Z,97009.08
2018-04-29T20:42:38.940Z,97015.96
2018-04-29T20:45:06.434Z,97039.89
2018-04-29T20:47:33.905Z,97049.27
2018-04-29T20:50:01.407Z,97072.38
2018-04-29T20:52:28.866Z,97079.35
2018-04-29T20:54:56.347Z,97075.30
2018-04-29T20:57:23.817Z,97097.68
2018-04-29T20:59:51.318Z,97088.14
2018-04-29T21:02:18.793Z,97102.28
2018-04-29T21:04:46.295Z,97103.69
2018-04-29T21:07:13.786Z,97104.00
2018-04-29T21:09:41.287Z,97109.78
2018-04-29T21:12:08.770Z,97124.95
2018-04-29T21:14:36.275Z,97132.83
2018-04-29T21:17:03.743Z,97147.77
2018-04-29T21:19:31.210Z,97148.36
2018-04-29T21:21:58.694Z,97147.68
2018-04-29T21:24:26.179Z,97142.05
2018-04-29T21:26:53.677Z,97133.00
2018-04-29T21:29:21.151Z,97145.51
2018-04-29T21:31:48.642Z,97144.91
2018-04-29T21:34:16.110Z,97154.35
2018-04-29T21:36:43.595Z,97155.04
2018-04-29T21:39:11.086Z,97156.53
2018-04-29T21:41:39.562Z,97160.22
2018-04-29T21:44:07.019Z,97176.97
2018-04-29T21:46:34.959Z,97169.33
2018-04-29T21:49:02.451Z,97186.05
2018-04-29T21:51:29.942Z,97193.86
2018-04-29T21:53:57.414Z,97197.39
2018-04-29T21:56:24.902Z,97208.64
2018-04-29T21:58:52.374Z,97194.56
2018-04-29T22:01:19.870Z,97207.16
2018-04-29T22:03:47.330Z,97228.48
2018-04-29T22:06:14.810Z,97224.00
2018-04-29T22:08:42.272Z,97233.84
2018-04-29T22:11:09.767Z,97272.50
2018-04-29T22:13:37.231Z,97235.02
2018-04-29T22:16:04.713Z,97245.78
2018-04-29T22:18:32.168Z,97258.66
2018-04-29T22:20:59.648Z,97262.48
2018-04-29T22:23:27.110Z,97273.52
2018-04-29T22:25:54.592Z,97275.99
2018-04-29T22:28:22.050Z,97279.78
2018-04-29T22:30:49.530Z,97284.51
2018-04-29T22:33:17.019Z,97275.19
2018-04-29T22:35:44.530Z,97262.33
2018-04-29T22:38:12.051Z,97273.75
2018-04-29T22:40:39.531Z,97292.30
2018-04-29T22:43:06.994Z,97292.09
2018-04-29T22:45:34.473Z,97301.64
2018-04-29T22:48:01.991Z,97315.02
2018-04-29T22:50:29.471Z,97308.46
2018-04-29T22:52:56.950Z,97314.34
2018-04-29T22:55:24.414Z,97340.58
2018-04-29T22:57:51.914Z,97334.34
2018-04-29T23:00:19.375Z,97333.30
2018-04-29T23:02:46.869Z,97358.52
2018-04-29T23:05:14.328Z,97360.44
2018-04-29T23:07:41.837Z,97370.63
2018-04-29T23:10:09.298Z,97387.77
2018-04-29T23:12:36.777Z,97390.00
2018-04-29T23:15:04.260Z,97394.64
2018-04-29T23:17:31.744Z,97390.52
2018-04-29T23:19:59.209Z,97391.94
2018-04-29T23:22:26.690Z,97412.41
2018-04-29T23:24:54.151Z,97400.39
2018-04-29T23:27:21.632Z,97400.38
2018-04-29T23:29:49.103Z,97398.72
2018-04-29T23:32:16.583Z,97397.29
2018-04-29T23:34:44.042Z,97403.25
2018-04-29T23:37:11.538Z,97418.66
2018-04-29T23:39:38.994Z,97418.92
2018-04-29T23:42:06.500Z,97414.82
2018-04-29T23:44:33.971Z,97406.17
2018-04-29T23:47:01.471Z,97406.27
2018-04-29T23:49:28.926Z,97400.22
2018-04-29T23:51:56.406Z,97412.88
2018-04-29T23:54:24.825Z,97424.62
2018-04-29T23:56:52.306Z,97424.94
2018-04-29T23:59:19.758Z,97417.58
